Time;durP1;ratioP1;P1;durP2;ratioP2;P2;SDS_P1;SDS_P2;PMS_P1;PMS_P2;Temp;Humidity;BMP_temperature;BMP_pressure;BME280_temperature;BME280_humidity;BME280_pressure;Samples;Min_cycle;Max_cycle;Signal;HPM_P1;HPM_P2
2023/03/23 00:02:09;;;;;;;18.40;3.43;;;;;;;;;;5114981;28;20241;-76
2023/03/23 00:04:37;;;;;;;20.47;3.73;;;;;;;;;;5114228;28;20221;-76
2023/03/23 00:07:04;;;;;;;14.93;3.00;;;;;;;;;;5114044;28;20285;-75
2023/03/23 00:09:34;;;;;;;16.53;3.50;;;;;;;;;;5114417;28;20229;-76
2023/03/23 00:12:05;;;;;;;19.27;3.33;;;;;;;;;;5114003;28;20282;-74
2023/03/23 00:14:40;;;;;;;15.10;3.80;;;;;;;;;;5114386;28;20242;-76
2023/03/23 00:17:09;;;;;;;14.03;3.40;;;;;;;;;;5114127;28;20197;-77
2023/03/23 00:19:51;;;;;;;17.30;3.63;;;;;;;;;;5113698;28;20284;-76
2023/03/23 00:22:21;;;;;;;15.00;3.53;;;;;;;;;;5114461;28;20674;-76
2023/03/23 00:24:50;;;;;;;20.03;3.90;;;;;;;;;;5114243;28;20245;-75
2023/03/23 00:27:17;;;;;;;18.47;3.73;;;;;;;;;;5113922;28;20204;-73
2023/03/23 00:29:45;;;;;;;18.13;3.50;;;;;;;;;;5114539;28;20711;-76
2023/03/23 00:32:14;;;;;;;17.27;3.70;;;;;;;;;;5113927;28;20233;-76
2023/03/23 00:34:45;;;;;;;16.57;3.10;;;;;;;;;;5113787;28;20194;-75
2023/03/23 00:37:16;;;;;;;16.40;3.30;;;;;;;;;;5114290;28;20289;-75
2023/03/23 00:39:45;;;;;;;16.73;3.47;;;;;;;;;;5114660;28;20190;-75
2023/03/23 00:42:12;;;;;;;14.80;3.20;;;;;;;;;;5113707;28;20198;-76
2023/03/23 00:44:39;;;;;;;15.87;3.00;;;;;;;;;;5113523;28;20666;-76
2023/03/23 00:47:08;;;;;;;16.53;2.97;;;;;;;;;;5114105;27;20257;-75
2023/03/23 00:49:36;;;;;;;12.40;3.03;;;;;;;;;;5113979;27;20194;-75
2023/03/23 00:52:06;;;;;;;12.00;2.20;;;;;;;;;;5113284;28;20642;-75
2023/03/23 00:54:34;;;;;;;14.33;2.77;;;;;;;;;;5113916;28;20281;-76
2023/03/23 00:57:01;;;;;;;11.23;2.67;;;;;;;;;;5113731;28;20202;-75
2023/03/23 00:59:29;;;;;;;11.67;2.43;;;;;;;;;;5113635;28;20264;-75
2023/03/23 01:01:56;;;;;;;10.83;2.67;;;;;;;;;;5113676;28;20205;-76
2023/03/23 01:04:23;;;;;;;11.47;2.40;;;;;;;;;;5112924;28;20259;-76
2023/03/23 01:06:51;;;;;;;12.80;2.43;;;;;;;;;;5113910;27;20228;-76
2023/03/23 01:09:21;;;;;;;9.57;2.33;;;;;;;;;;5113407;28;20247;-76
2023/03/23 01:11:48;;;;;;;10.83;2.47;;;;;;;;;;5113039;28;20221;-75
2023/03/23 01:14:16;;;;;;;7.87;2.57;;;;;;;;;;5113712;28;20289;-76
2023/03/23 01:16:43;;;;;;;12.17;2.60;;;;;;;;;;5113226;27;20186;-76
2023/03/23 01:19:11;;;;;;;11.63;2.47;;;;;;;;;;5113195;28;20226;-76
2023/03/23 01:21:38;;;;;;;10.13;2.20;;;;;;;;;;5113593;28;20204;-76
2023/03/23 01:24:06;;;;;;;9.50;2.50;;;;;;;;;;5113366;28;20219;-76
2023/03/23 01:26:35;;;;;;;8.00;2.07;;;;;;;;;;5113326;28;20281;-76
2023/03/23 01:29:02;;;;;;;9.83;2.40;;;;;;;;;;5112984;28;20272;-76
2023/03/23 01:31:29;;;;;;;9.57;2.30;;;;;;;;;;5113058;28;20312;-76
2023/03/23 01:33:56;;;;;;;9.27;2.33;;;;;;;;;;5112959;28;20284;-75
2023/03/23 01:36:25;;;;;;;8.63;2.77;;;;;;;;;;5112889;28;20229;-77
2023/03/23 01:38:52;;;;;;;7.00;1.73;;;;;;;;;;5112622;28;20251;-76
2023/03/23 01:41:20;;;;;;;11.47;2.97;;;;;;;;;;5112951;28;20217;-75
2023/03/23 01:44:02;;;;;;;8.87;2.33;;;;;;;;;;5112952;28;20289;-76
2023/03/23 01:46:30;;;;;;;9.13;2.30;;;;;;;;;;5112474;28;20252;-76
2023/03/23 01:48:58;;;;;;;10.97;2.50;;;;;;;;;;5112683;28;20221;-76
2023/03/23 01:51:26;;;;;;;6.93;2.17;;;;;;;;;;5112956;28;20194;-75
2023/03/23 01:53:55;;;;;;;9.40;2.27;;;;;;;;;;5111842;28;20733;-76
2023/03/23 01:56:25;;;;;;;12.73;2.43;;;;;;;;;;5112599;28;20254;-76
2023/03/23 01:58:53;;;;;;;6.73;1.90;;;;;;;;;;5112112;28;20197;-76
2023/03/23 02:01:24;;;;;;;8.97;2.30;;;;;;;;;;5112800;27;20198;-77
2023/03/23 02:03:53;;;;;;;12.30;2.53;;;;;;;;;;5111749;28;20194;-76
2023/03/23 02:06:20;;;;;;;11.20;2.70;;;;;;;;;;5112009;28;20293;-76
2023/03/23 02:08:50;;;;;;;9.40;2.70;;;;;;;;;;5112094;28;20248;-76
2023/03/23 02:11:17;;;;;;;5.13;1.73;;;;;;;;;;5112121;28;20284;-76
2023/03/23 02:13:45;;;;;;;11.97;2.27;;;;;;;;;;5112563;28;20293;-76
2023/03/23 02:16:16;;;;;;;10.57;2.10;;;;;;;;;;5112134;28;20291;-75
2023/03/23 02:18:49;;;;;;;6.87;2.17;;;;;;;;;;5111786;28;20611;-76
2023/03/23 02:21:34;;;;;;;11.83;2.60;;;;;;;;;;5111992;28;20285;-76
2023/03/23 02:24:20;;;;;;;9.30;2.30;;;;;;;;;;5111576;28;20263;-75
2023/03/23 02:26:55;;;;;;;7.93;2.00;;;;;;;;;;5112714;28;20258;-76
2023/03/23 02:29:40;;;;;;;7.00;2.03;;;;;;;;;;5112077;28;20205;-76
2023/03/23 02:32:13;;;;;;;13.07;2.20;;;;;;;;;;5104471;28;20264;-75
2023/03/23 02:34:43;;;;;;;7.47;1.87;;;;;;;;;;5111570;28;20662;-76
2023/03/23 02:37:13;;;;;;;7.93;1.97;;;;;;;;;;5111365;28;20293;-76
2023/03/23 02:39:44;;;;;;;13.17;2.63;;;;;;;;;;5112111;28;20186;-77
2023/03/23 02:42:13;;;;;;;9.60;2.23;;;;;;;;;;5111567;28;20198;-76
2023/03/23 02:44:42;;;;;;;9.90;2.33;;;;;;;;;;5111816;28;20243;-75
2023/03/23 02:47:12;;;;;;;12.07;2.60;;;;;;;;;;5111831;28;20320;-76
2023/03/23 02:49:41;;;;;;;11.23;2.27;;;;;;;;;;5111800;28;20300;-76
2023/03/23 02:52:14;;;;;;;9.13;2.30;;;;;;;;;;5111375;28;20319;-76
2023/03/23 02:54:42;;;;;;;11.87;2.10;;;;;;;;;;5111948;28;20197;-76
2023/03/23 02:57:10;;;;;;;8.77;1.90;;;;;;;;;;5111614;28;20198;-76
2023/03/23 02:59:37;;;;;;;14.53;2.33;;;;;;;;;;5111588;28;20236;-75
2023/03/23 03:02:07;;;;;;;10.03;2.60;;;;;;;;;;5110977;28;20302;-75
2023/03/23 03:04:34;;;;;;;10.00;2.50;;;;;;;;;;5111450;28;20213;-76
2023/03/23 03:07:29;;;;;;;12.00;2.10;;;;;;;;;;5103897;28;20202;-76
2023/03/23 03:10:00;;;;;;;12.73;2.40;;;;;;;;;;5083340;28;20306;-74
2023/03/23 03:12:43;;;;;;;12.67;2.63;;;;;;;;;;5088722;28;20271;-76
2023/03/23 03:15:14;;;;;;;10.27;2.40;;;;;;;;;;5088754;28;20237;-76
2023/03/23 03:17:44;;;;;;;11.00;2.50;;;;;;;;;;5088699;28;20675;-76
2023/03/23 03:20:13;;;;;;;11.63;2.10;;;;;;;;;;5088312;28;20700;-75
2023/03/23 03:22:42;;;;;;;12.53;2.20;;;;;;;;;;5088781;28;20194;-75
2023/03/23 03:25:13;;;;;;;15.23;2.80;;;;;;;;;;5088883;28;20221;-75
2023/03/23 03:27:41;;;;;;;8.50;2.30;;;;;;;;;;5088300;28;20643;-75
2023/03/23 03:30:11;;;;;;;10.07;2.40;;;;;;;;;;5088577;28;20222;-76
2023/03/23 03:32:43;;;;;;;14.03;2.60;;;;;;;;;;5088723;28;20353;-75
2023/03/23 03:35:10;;;;;;;11.53;2.40;;;;;;;;;;5088028;28;20191;-75
2023/03/23 03:37:39;;;;;;;16.50;2.53;;;;;;;;;;5088804;28;20293;-75
2023/03/23 03:40:11;;;;;;;12.43;2.83;;;;;;;;;;5088572;28;20203;-75
2023/03/23 03:42:40;;;;;;;11.50;2.37;;;;;;;;;;5088646;28;20244;-75
2023/03/23 03:45:08;;;;;;;13.67;2.27;;;;;;;;;;5094434;28;20289;-75
2023/03/23 03:47:36;;;;;;;14.63;2.73;;;;;;;;;;5110878;28;20337;-76
2023/03/23 03:50:03;;;;;;;10.87;2.33;;;;;;;;;;5110986;28;20201;-76
2023/03/23 03:52:31;;;;;;;14.17;3.20;;;;;;;;;;5111124;28;20308;-76
2023/03/23 03:54:58;;;;;;;16.23;2.67;;;;;;;;;;5112490;28;20229;-77
2023/03/23 03:57:26;;;;;;;14.93;3.10;;;;;;;;;;5115017;28;20335;-76
2023/03/23 03:59:54;;;;;;;16.73;2.67;;;;;;;;;;5114654;28;20221;-75
2023/03/23 04:02:21;;;;;;;9.33;2.23;;;;;;;;;;5114577;28;20228;-77
2023/03/23 04:04:49;;;;;;;12.87;3.33;;;;;;;;;;5115009;27;20238;-76
2023/03/23 04:07:17;;;;;;;10.53;2.63;;;;;;;;;;5114517;28;20727;-77
2023/03/23 04:09:46;;;;;;;13.57;2.80;;;;;;;;;;5115000;28;20233;-76
2023/03/23 04:12:13;;;;;;;11.33;2.13;;;;;;;;;;5114529;28;20194;-76
2023/03/23 04:14:40;;;;;;;12.87;3.07;;;;;;;;;;5114591;28;20221;-77
2023/03/23 04:17:10;;;;;;;13.27;2.50;;;;;;;;;;5114479;28;20204;-76
2023/03/23 04:19:38;;;;;;;14.90;3.30;;;;;;;;;;5113877;28;20662;-76
2023/03/23 04:22:05;;;;;;;15.10;2.90;;;;;;;;;;5114655;28;20221;-76
2023/03/23 04:24:33;;;;;;;12.83;2.80;;;;;;;;;;5114044;28;20721;-75
2023/03/23 04:27:01;;;;;;;17.83;2.90;;;;;;;;;;5114410;28;20193;-76
2023/03/23 04:29:28;;;;;;;16.57;2.80;;;;;;;;;;5114188;28;20609;-75
2023/03/23 04:31:56;;;;;;;11.50;2.73;;;;;;;;;;5114429;28;20288;-76
2023/03/23 04:34:25;;;;;;;14.00;2.80;;;;;;;;;;5113867;28;20655;-76
2023/03/23 04:36:52;;;;;;;15.97;3.13;;;;;;;;;;5114585;28;20266;-75
2023/03/23 04:39:20;;;;;;;16.10;2.63;;;;;;;;;;5113683;27;20290;-75
2023/03/23 04:41:47;;;;;;;15.03;2.67;;;;;;;;;;5113675;28;20693;-76
2023/03/23 04:44:17;;;;;;;18.20;3.07;;;;;;;;;;5113543;28;20709;-76
2023/03/23 04:46:49;;;;;;;15.87;2.73;;;;;;;;;;5113580;28;20717;-76
2023/03/23 04:49:20;;;;;;;15.70;3.27;;;;;;;;;;5113292;28;20289;-76
2023/03/23 04:51:50;;;;;;;15.93;3.13;;;;;;;;;;5113913;28;20200;-74
2023/03/23 04:54:17;;;;;;;17.00;3.03;;;;;;;;;;5114578;28;20225;-75
2023/03/23 04:56:44;;;;;;;14.37;3.10;;;;;;;;;;5113539;27;20221;-76
2023/03/23 04:59:13;;;;;;;18.03;3.03;;;;;;;;;;5113369;28;20288;-75
2023/03/23 05:01:40;;;;;;;12.83;2.70;;;;;;;;;;5113239;28;20194;-76
2023/03/23 05:04:07;;;;;;;12.73;3.10;;;;;;;;;;5113540;28;20228;-77
2023/03/23 05:06:34;;;;;;;16.27;3.07;;;;;;;;;;5113394;28;20289;-77
2023/03/23 05:09:03;;;;;;;16.83;3.40;;;;;;;;;;5113729;28;20194;-75
2023/03/23 05:11:30;;;;;;;12.40;3.03;;;;;;;;;;5113929;28;20208;-75
2023/03/23 05:13:57;;;;;;;20.10;3.70;;;;;;;;;;5112743;28;20321;-76
2023/03/23 05:16:25;;;;;;;19.87;3.33;;;;;;;;;;5113539;28;20205;-75
2023/03/23 05:18:52;;;;;;;17.33;2.90;;;;;;;;;;5113430;28;20222;-75
2023/03/23 05:21:20;;;;;;;12.80;2.73;;;;;;;;;;5113011;28;20281;-76
2023/03/23 05:23:54;;;;;;;14.87;3.00;;;;;;;;;;5113383;28;20224;-75
2023/03/23 05:26:23;;;;;;;13.43;3.03;;;;;;;;;;5112779;28;20194;-77
2023/03/23 05:28:52;;;;;;;14.73;3.20;;;;;;;;;;5113057;27;20615;-76
2023/03/23 05:31:19;;;;;;;13.17;3.30;;;;;;;;;;5112279;27;20284;-76
2023/03/23 05:33:46;;;;;;;14.47;2.70;;;;;;;;;;5112696;28;20253;-76
2023/03/23 05:36:14;;;;;;;17.13;3.00;;;;;;;;;;5113091;28;20197;-76
2023/03/23 05:38:45;;;;;;;14.57;3.20;;;;;;;;;;5113041;28;20198;-76
2023/03/23 05:41:12;;;;;;;11.00;2.50;;;;;;;;;;5112664;28;20288;-76
2023/03/23 05:43:40;;;;;;;14.17;3.03;;;;;;;;;;5112782;28;20690;-76
2023/03/23 05:46:08;;;;;;;13.60;2.83;;;;;;;;;;5112360;28;20873;-76
2023/03/23 05:48:36;;;;;;;11.80;2.80;;;;;;;;;;5112844;28;20233;-76
2023/03/23 05:51:03;;;;;;;13.07;3.33;;;;;;;;;;5112692;28;20276;-76
2023/03/23 05:53:30;;;;;;;11.57;2.63;;;;;;;;;;5112665;27;20316;-76
2023/03/23 05:56:00;;;;;;;11.23;2.30;;;;;;;;;;5112857;28;20190;-75
2023/03/23 05:58:27;;;;;;;7.97;2.40;;;;;;;;;;5112502;28;20198;-76
2023/03/23 06:00:55;;;;;;;14.40;2.70;;;;;;;;;;5111803;28;20727;-76
2023/03/23 06:03:23;;;;;;;13.07;2.97;;;;;;;;;;5112269;28;20281;-75
2023/03/23 06:05:50;;;;;;;14.17;3.17;;;;;;;;;;5112282;28;20197;-76
2023/03/23 06:08:18;;;;;;;14.97;3.20;;;;;;;;;;5112251;28;20278;-76
2023/03/23 06:10:45;;;;;;;12.87;2.80;;;;;;;;;;5112347;28;20289;-76
2023/03/23 06:13:12;;;;;;;19.63;3.33;;;;;;;;;;5112052;28;20229;-77
2023/03/23 06:15:39;;;;;;;14.27;3.03;;;;;;;;;;5112491;28;20198;-77
2023/03/23 06:18:08;;;;;;;13.73;2.67;;;;;;;;;;5111227;28;20225;-75
2023/03/23 06:20:36;;;;;;;16.93;3.43;;;;;;;;;;5112183;28;20254;-75
2023/03/23 06:23:04;;;;;;;15.97;3.40;;;;;;;;;;5111995;28;20205;-77
2023/03/23 06:25:31;;;;;;;15.67;3.83;;;;;;;;;;5111932;28;20198;-76
2023/03/23 06:27:58;;;;;;;21.03;4.20;;;;;;;;;;5112238;28;20201;-76
2023/03/23 06:30:26;;;;;;;16.33;3.63;;;;;;;;;;5111700;28;20229;-76
2023/03/23 06:32:53;;;;;;;21.03;3.93;;;;;;;;;;5112087;28;20190;-75
2023/03/23 06:35:22;;;;;;;21.90;4.77;;;;;;;;;;5111559;28;20895;-76
2023/03/23 06:37:50;;;;;;;18.50;3.63;;;;;;;;;;5112134;28;20254;-75
2023/03/23 06:40:19;;;;;;;22.10;3.90;;;;;;;;;;5112018;28;20201;-76
2023/03/23 06:42:46;;;;;;;18.17;4.33;;;;;;;;;;5111610;28;20213;-75
2023/03/23 06:45:14;;;;;;;17.87;3.57;;;;;;;;;;5111848;28;20197;-76
2023/03/23 06:47:41;;;;;;;20.13;3.70;;;;;;;;;;5111196;28;20228;-78
2023/03/23 06:50:08;;;;;;;17.57;2.77;;;;;;;;;;5111786;28;20284;-79
2023/03/23 06:52:38;;;;;;;24.03;4.10;;;;;;;;;;5111445;28;20684;-75
2023/03/23 06:55:06;;;;;;;20.03;4.07;;;;;;;;;;5110911;28;20341;-76
2023/03/23 06:57:33;;;;;;;21.03;4.10;;;;;;;;;;5110574;28;20674;-76
2023/03/23 07:00:04;;;;;;;14.33;3.27;;;;;;;;;;5100696;28;20226;-75
2023/03/23 07:02:33;;;;;;;18.60;3.60;;;;;;;;;;5109989;28;20289;-75
2023/03/23 07:05:00;;;;;;;16.73;3.80;;;;;;;;;;5105116;28;20198;-75
2023/03/23 07:07:27;;;;;;;18.90;3.33;;;;;;;;;;5108325;28;20580;-75
2023/03/23 07:09:56;;;;;;;22.17;4.17;;;;;;;;;;5108142;28;20190;-75
2023/03/23 07:12:23;;;;;;;19.63;4.20;;;;;;;;;;5105724;28;20204;-77
2023/03/23 07:14:50;;;;;;;25.37;4.60;;;;;;;;;;5107451;28;20674;-74
2023/03/23 07:17:20;;;;;;;20.93;3.90;;;;;;;;;;5109193;28;20277;-75
2023/03/23 07:19:47;;;;;;;23.17;3.97;;;;;;;;;;5107441;28;20224;-75
2023/03/23 07:22:15;;;;;;;24.33;4.00;;;;;;;;;;5108752;28;20278;-76
2023/03/23 07:24:46;;;;;;;24.90;4.33;;;;;;;;;;5109096;28;20666;-75
2023/03/23 07:27:15;;;;;;;19.43;3.23;;;;;;;;;;5108317;28;20718;-75
2023/03/23 07:29:42;;;;;;;19.73;3.97;;;;;;;;;;5111783;28;20193;-75
2023/03/23 07:32:11;;;;;;;19.23;3.77;;;;;;;;;;5113155;27;20198;-75
2023/03/23 07:34:39;;;;;;;18.97;4.00;;;;;;;;;;5113241;28;20267;-77
2023/03/23 07:37:06;;;;;;;21.90;4.43;;;;;;;;;;5112655;28;20709;-76
2023/03/23 07:39:33;;;;;;;17.93;3.60;;;;;;;;;;5111568;28;20255;-76
2023/03/23 07:42:01;;;;;;;20.83;4.70;;;;;;;;;;5106506;28;20227;-75
2023/03/23 07:44:30;;;;;;;20.97;4.33;;;;;;;;;;5112475;28;20198;-76
2023/03/23 07:46:57;;;;;;;24.37;4.73;;;;;;;;;;5113389;28;20233;-74
2023/03/23 07:49:26;;;;;;;20.73;4.73;;;;;;;;;;5113075;28;20293;-76
2023/03/23 07:51:53;;;;;;;21.83;4.30;;;;;;;;;;5112052;28;20204;-76
2023/03/23 07:54:20;;;;;;;24.80;4.10;;;;;;;;;;5112546;28;20308;-76
2023/03/23 07:56:48;;;;;;;19.10;4.73;;;;;;;;;;5110886;28;20229;-76
2023/03/23 07:59:15;;;;;;;22.23;5.00;;;;;;;;;;5112893;28;20731;-76
2023/03/23 08:01:43;;;;;;;22.17;4.40;;;;;;;;;;5113402;28;20293;-77
2023/03/23 08:04:12;;;;;;;22.57;4.27;;;;;;;;;;5113073;28;20289;-75
2023/03/23 08:06:40;;;;;;;21.80;4.90;;;;;;;;;;5112906;28;20670;-77
2023/03/23 08:09:08;;;;;;;24.23;4.17;;;;;;;;;;5112633;28;20206;-76
2023/03/23 08:11:36;;;;;;;22.97;5.07;;;;;;;;;;5113093;28;20243;-77
2023/03/23 08:14:04;;;;;;;29.83;4.43;;;;;;;;;;5112832;28;20238;-77
2023/03/23 08:16:31;;;;;;;28.20;5.13;;;;;;;;;;5110739;27;20285;-77
2023/03/23 08:19:00;;;;;;;24.83;5.07;;;;;;;;;;5109675;28;20285;-77
2023/03/23 08:21:27;;;;;;;27.87;4.93;;;;;;;;;;5113089;28;20189;-77
2023/03/23 08:23:54;;;;;;;24.20;5.70;;;;;;;;;;5112438;28;20618;-74
2023/03/23 08:26:22;;;;;;;19.23;4.03;;;;;;;;;;5112700;28;20246;-77
2023/03/23 08:28:49;;;;;;;24.87;4.70;;;;;;;;;;5112025;28;20197;-76
2023/03/23 08:31:16;;;;;;;28.00;5.10;;;;;;;;;;5112408;28;20708;-76
2023/03/23 08:33:44;;;;;;;26.00;4.23;;;;;;;;;;5108500;28;20272;-77
2023/03/23 08:36:13;;;;;;;23.33;4.60;;;;;;;;;;5106268;28;20250;-76
2023/03/23 08:38:40;;;;;;;20.50;5.17;;;;;;;;;;5112525;28;20224;-75
2023/03/23 08:41:08;;;;;;;25.53;4.73;;;;;;;;;;5111134;28;20233;-75
2023/03/23 08:43:37;;;;;;;27.97;5.30;;;;;;;;;;5112419;28;20189;-76
2023/03/23 08:46:08;;;;;;;22.17;4.63;;;;;;;;;;5111841;28;20213;-76
2023/03/23 08:48:36;;;;;;;25.50;5.00;;;;;;;;;;5111580;28;20198;-76
2023/03/23 08:51:03;;;;;;;27.00;5.07;;;;;;;;;;5112072;28;20201;-75
2023/03/23 08:53:32;;;;;;;26.67;5.23;;;;;;;;;;5112794;28;20229;-76
2023/03/23 08:56:04;;;;;;;21.73;5.20;;;;;;;;;;5111614;28;20293;-76
2023/03/23 08:58:32;;;;;;;24.20;4.80;;;;;;;;;;5111140;28;20712;-76
2023/03/23 09:01:00;;;;;;;24.93;4.70;;;;;;;;;;5111393;28;20285;-75
2023/03/23 09:03:27;;;;;;;24.40;4.67;;;;;;;;;;5111480;28;20198;-77
2023/03/23 09:05:54;;;;;;;21.20;4.37;;;;;;;;;;5111440;28;20625;-76
2023/03/23 09:08:21;;;;;;;24.10;5.07;;;;;;;;;;5111971;28;20293;-77
2023/03/23 09:10:50;;;;;;;21.63;4.40;;;;;;;;;;5111737;28;20715;-76
2023/03/23 09:13:17;;;;;;;17.40;4.03;;;;;;;;;;5112248;28;20205;-77
2023/03/23 09:15:44;;;;;;;24.17;5.00;;;;;;;;;;5120145;27;20316;-76
2023/03/23 09:18:12;;;;;;;21.13;4.47;;;;;;;;;;5103746;28;20293;-73
2023/03/23 09:20:39;;;;;;;21.90;4.23;;;;;;;;;;5110999;28;20584;-75
2023/03/23 09:23:07;;;;;;;26.10;4.63;;;;;;;;;;5110956;28;20206;-77
2023/03/23 09:25:34;;;;;;;18.97;4.07;;;;;;;;;;5111945;28;20241;-77
2023/03/23 09:28:03;;;;;;;18.43;4.07;;;;;;;;;;5111205;28;20293;-76
2023/03/23 09:30:31;;;;;;;19.87;4.10;;;;;;;;;;5110927;28;20686;-74
2023/03/23 09:33:01;;;;;;;19.60;4.00;;;;;;;;;;5111280;28;20605;-77
2023/03/23 09:35:28;;;;;;;17.77;3.83;;;;;;;;;;5111304;28;20225;-74
2023/03/23 09:37:56;;;;;;;20.60;4.20;;;;;;;;;;5110995;28;20220;-77
2023/03/23 09:40:24;;;;;;;18.67;4.37;;;;;;;;;;5111641;28;20194;-76
2023/03/23 09:43:12;;;;;;;20.83;4.27;;;;;;;;;;5111392;28;20738;-73
2023/03/23 09:45:45;;;;;;;19.73;4.63;;;;;;;;;;5106398;28;20254;-77
2023/03/23 09:48:21;;;;;;;21.50;4.53;;;;;;;;;;5103366;28;20198;-74
2023/03/23 09:50:50;;;;;;;21.13;4.20;;;;;;;;;;5110340;28;20197;-75
2023/03/23 09:53:19;;;;;;;20.20;4.27;;;;;;;;;;5110210;28;20201;-76
2023/03/23 09:55:48;;;;;;;20.67;4.27;;;;;;;;;;5110975;28;20345;-76
2023/03/23 09:58:19;;;;;;;16.93;3.70;;;;;;;;;;5111404;28;20288;-76
2023/03/23 10:00:50;;;;;;;17.63;3.73;;;;;;;;;;5110043;28;20202;-76
2023/03/23 10:03:18;;;;;;;17.70;4.20;;;;;;;;;;5110743;28;20229;-75
2023/03/23 10:05:47;;;;;;;18.87;3.93;;;;;;;;;;5110594;28;20617;-76
2023/03/23 10:08:15;;;;;;;16.70;3.53;;;;;;;;;;5109668;28;20200;-76
2023/03/23 10:10:50;;;;;;;19.53;4.50;;;;;;;;;;5111525;27;20194;-75
2023/03/23 10:13:24;;;;;;;16.07;4.00;;;;;;;;;;5105908;27;20220;-74
2023/03/23 10:15:53;;;;;;;17.57;3.77;;;;;;;;;;5109682;27;20320;-74
2023/03/23 10:18:26;;;;;;;15.90;3.77;;;;;;;;;;5116330;27;20285;-74
2023/03/23 10:20:55;;;;;;;14.50;4.00;;;;;;;;;;5106698;27;20229;-74
2023/03/23 10:23:35;;;;;;;16.83;3.57;;;;;;;;;;5114881;27;20275;-75
2023/03/23 10:26:05;;;;;;;15.27;3.10;;;;;;;;;;5110308;28;20199;-74
2023/03/23 10:28:54;;;;;;;;;;;;;;;;;;;;;
2023/03/23 10:31:25;;;;;;;17.23;3.77;;;;;;;;;;5110459;27;20210;-76
2023/03/23 10:33:54;;;;;;;15.20;3.40;;;;;;;;;;5116295;27;20226;-76
2023/03/23 10:36:24;;;;;;;16.13;3.43;;;;;;;;;;5109634;27;20221;-75
2023/03/23 10:38:55;;;;;;;15.07;3.00;;;;;;;;;;5109012;28;20213;-77
2023/03/23 10:41:23;;;;;;;16.33;3.40;;;;;;;;;;5109978;28;20197;-76
2023/03/23 10:43:52;;;;;;;14.70;3.90;;;;;;;;;;5110311;27;20296;-76
2023/03/23 10:46:24;;;;;;;15.87;3.67;;;;;;;;;;5121727;27;20316;-75
2023/03/23 10:48:54;;;;;;;17.20;3.37;;;;;;;;;;5116668;27;20201;-73
2023/03/23 10:51:24;;;;;;;17.17;3.77;;;;;;;;;;5118214;27;20193;-73
2023/03/23 10:53:52;;;;;;;18.63;3.67;;;;;;;;;;5115495;27;20238;-77
2023/03/23 10:56:25;;;;;;;15.40;3.50;;;;;;;;;;5118722;27;20229;-77
2023/03/23 10:58:53;;;;;;;16.47;3.63;;;;;;;;;;5108973;28;20250;-77
2023/03/23 11:01:21;;;;;;;14.70;3.90;;;;;;;;;;5106242;28;20198;-77
2023/03/23 11:03:50;;;;;;;18.30;3.83;;;;;;;;;;5116602;27;20197;-74
2023/03/23 11:06:23;;;;;;;17.67;3.70;;;;;;;;;;5116881;27;20601;-74
2023/03/23 11:08:53;;;;;;;17.30;4.50;;;;;;;;;;5111902;28;20677;-74
2023/03/23 11:11:22;;;;;;;17.53;4.53;;;;;;;;;;5114135;28;20631;-75
2023/03/23 11:13:51;;;;;;;15.23;4.63;;;;;;;;;;5112964;28;20221;-75
2023/03/23 11:16:25;;;;;;;16.60;3.40;;;;;;;;;;5113999;28;20221;-75
2023/03/23 11:18:53;;;;;;;17.63;4.20;;;;;;;;;;5111750;28;20285;-74
2023/03/23 11:21:23;;;;;;;13.60;3.50;;;;;;;;;;5113562;27;20685;-76
2023/03/23 11:23:52;;;;;;;12.63;3.50;;;;;;;;;;5111091;28;20713;-76
2023/03/23 11:26:21;;;;;;;15.43;3.27;;;;;;;;;;5109680;28;20296;-75
2023/03/23 11:28:52;;;;;;;20.10;3.73;;;;;;;;;;5113047;28;20194;-76
2023/03/23 11:31:22;;;;;;;14.90;3.97;;;;;;;;;;5113494;27;20194;-76
2023/03/23 11:33:52;;;;;;;18.73;3.47;;;;;;;;;;5113142;28;20225;-76
2023/03/23 11:36:23;;;;;;;17.60;3.67;;;;;;;;;;5112481;28;20227;-76
2023/03/23 11:38:55;;;;;;;17.30;3.93;;;;;;;;;;5105081;28;20198;-76
2023/03/23 11:41:24;;;;;;;19.83;4.43;;;;;;;;;;5113254;28;20194;-76
2023/03/23 11:43:53;;;;;;;15.03;3.93;;;;;;;;;;5109731;28;20670;-75
2023/03/23 11:46:27;;;;;;;16.53;3.87;;;;;;;;;;5112331;28;20264;-75
2023/03/23 11:48:58;;;;;;;15.67;3.43;;;;;;;;;;5108238;28;20218;-75
2023/03/23 11:51:30;;;;;;;15.70;3.63;;;;;;;;;;5106836;28;20292;-76
2023/03/23 11:53:59;;;;;;;20.07;3.97;;;;;;;;;;5105424;28;20206;-76
2023/03/23 11:56:27;;;;;;;16.00;4.03;;;;;;;;;;5112723;28;20253;-75
2023/03/23 11:58:55;;;;;;;18.00;4.10;;;;;;;;;;5111481;28;20229;-76
2023/03/23 12:01:35;;;;;;;21.13;5.22;;;;;;;;;;5111211;28;20207;-75
2023/03/23 12:04:06;;;;;;;19.35;3.80;;;;;;;;;;5112378;28;20229;-75
2023/03/23 12:06:41;;;;;;;17.55;3.88;;;;;;;;;;5111284;28;20645;-77
2023/03/23 12:09:19;;;;;;;18.23;3.90;;;;;;;;;;5112398;28;20200;-75
2023/03/23 12:11:56;;;;;;;16.60;3.78;;;;;;;;;;5109842;28;20189;-77
2023/03/23 12:14:31;;;;;;;20.70;3.78;;;;;;;;;;5110710;27;20765;-75
2023/03/23 12:17:02;;;;;;;17.70;3.72;;;;;;;;;;5107598;27;20205;-76
2023/03/23 12:19:35;;;;;;;15.00;3.85;;;;;;;;;;5109041;28;20658;-75
2023/03/23 12:22:10;;;;;;;17.90;4.20;;;;;;;;;;5108661;28;20199;-75
2023/03/23 12:24:44;;;;;;;17.45;4.70;;;;;;;;;;5108906;28;20229;-75
2023/03/23 12:27:16;;;;;;;24.38;4.65;;;;;;;;;;5111054;28;20193;-75
2023/03/23 12:29:53;;;;;;;18.67;3.78;;;;;;;;;;5098987;28;20205;-76
2023/03/23 12:32:33;;;;;;;17.88;4.13;;;;;;;;;;5104562;28;20240;-75
2023/03/23 12:35:07;;;;;;;22.88;4.47;;;;;;;;;;5106410;28;20286;-75
2023/03/23 12:37:42;;;;;;;20.43;4.30;;;;;;;;;;5103936;28;20285;-75
2023/03/23 12:40:22;;;;;;;21.35;4.15;;;;;;;;;;5100134;28;20209;-75
2023/03/23 12:42:52;;;;;;;15.48;3.42;;;;;;;;;;5111319;28;20194;-75
2023/03/23 12:45:22;;;;;;;18.85;3.58;;;;;;;;;;5105494;28;20233;-75
2023/03/23 12:47:52;;;;;;;22.48;4.72;;;;;;;;;;5103695;28;20314;-75
2023/03/23 12:50:22;;;;;;;15.60;3.75;;;;;;;;;;5105547;28;20285;-76
2023/03/23 12:52:56;;;;;;;20.60;4.40;;;;;;;;;;5102503;28;20202;-75
2023/03/23 12:55:26;;;;;;;21.88;5.00;;;;;;;;;;5107390;28;20283;-77
2023/03/23 12:57:59;;;;;;;18.08;3.70;;;;;;;;;;5109411;28;20654;-76
2023/03/23 13:00:27;;;;;;;14.38;3.83;;;;;;;;;;5102043;28;20194;-78
2023/03/23 13:02:57;;;;;;;19.17;3.83;;;;;;;;;;5110593;28;20201;-76
2023/03/23 13:05:30;;;;;;;13.90;4.03;;;;;;;;;;5113715;27;20201;-76
2023/03/23 13:08:01;;;;;;;13.48;3.20;;;;;;;;;;5111790;28;20281;-76
2023/03/23 13:10:29;;;;;;;15.82;3.17;;;;;;;;;;5111654;28;20194;-77
2023/03/23 13:12:57;;;;;;;13.93;3.38;;;;;;;;;;5102222;28;20202;-76
2023/03/23 13:15:28;;;;;;;18.83;3.72;;;;;;;;;;5109945;28;20257;-75
2023/03/23 13:18:01;;;;;;;18.00;3.90;;;;;;;;;;5111152;28;20225;-75
2023/03/23 13:20:39;;;;;;;16.08;4.22;;;;;;;;;;5104287;28;20203;-76
2023/03/23 13:23:11;;;;;;;16.85;3.72;;;;;;;;;;5109502;27;20290;-76
2023/03/23 13:25:49;;;;;;;14.80;3.58;;;;;;;;;;5111490;28;20622;-75
2023/03/23 13:28:20;;;;;;;14.02;3.83;;;;;;;;;;5104316;28;20201;-76
2023/03/23 13:31:02;;;;;;;14.52;3.60;;;;;;;;;;5110143;28;20197;-76
2023/03/23 13:33:34;;;;;;;15.27;4.03;;;;;;;;;;5104332;27;20209;-76
2023/03/23 13:36:07;;;;;;;17.17;3.85;;;;;;;;;;5110834;28;20741;-76
2023/03/23 13:38:37;;;;;;;18.20;3.53;;;;;;;;;;5111865;27;20247;-76
2023/03/23 13:41:09;;;;;;;11.55;3.17;;;;;;;;;;5110833;28;20233;-76
2023/03/23 13:43:37;;;;;;;14.25;3.25;;;;;;;;;;5107832;28;20201;-77
2023/03/23 13:46:09;;;;;;;12.68;3.33;;;;;;;;;;5108795;28;20206;-76
2023/03/23 13:48:47;;;;;;;13.23;3.20;;;;;;;;;;5111341;28;20194;-78
2023/03/23 13:51:34;;;;;;;15.13;3.10;;;;;;;;;;5110227;28;20197;-78
2023/03/23 13:54:16;;;;;;;13.02;2.97;;;;;;;;;;5105348;27;20204;-77
2023/03/23 13:56:54;;;;;;;10.63;2.47;;;;;;;;;;5109425;27;20252;-77
2023/03/23 13:59:30;;;;;;;8.23;2.58;;;;;;;;;;5106383;27;20220;-76
2023/03/23 14:01:58;;;;;;;10.00;2.45;;;;;;;;;;5110253;28;20278;-77
2023/03/23 14:04:33;;;;;;;7.63;1.90;;;;;;;;;;5113232;27;20678;-77
2023/03/23 14:07:10;;;;;;;11.73;2.83;;;;;;;;;;5104829;28;20209;-77
2023/03/23 14:09:40;;;;;;;8.52;2.30;;;;;;;;;;5100886;27;20202;-77
2023/03/23 14:12:16;;;;;;;10.68;2.33;;;;;;;;;;5110148;27;20197;-77
2023/03/23 14:14:45;;;;;;;9.07;2.65;;;;;;;;;;5114854;27;20249;-77
2023/03/23 14:17:15;;;;;;;8.02;2.22;;;;;;;;;;5106372;28;20221;-76
2023/03/23 14:19:43;;;;;;;10.43;2.70;;;;;;;;;;5110481;28;20634;-77
2023/03/23 14:22:18;;;;;;;9.60;3.03;;;;;;;;;;5108664;27;20277;-76
2023/03/23 14:24:46;;;;;;;11.57;2.70;;;;;;;;;;5107873;28;20205;-77
2023/03/23 14:27:16;;;;;;;10.00;2.72;;;;;;;;;;5109337;28;20201;-77
2023/03/23 14:29:44;;;;;;;10.15;2.42;;;;;;;;;;5111795;27;20734;-77
2023/03/23 14:32:13;;;;;;;8.25;2.72;;;;;;;;;;5106038;28;20285;-77
2023/03/23 14:34:41;;;;;;;11.25;2.85;;;;;;;;;;5105831;28;20189;-77
2023/03/23 14:37:11;;;;;;;9.82;2.55;;;;;;;;;;5107333;28;20251;-76
2023/03/23 14:39:38;;;;;;;7.03;2.55;;;;;;;;;;5108035;28;20190;-76
2023/03/23 14:42:08;;;;;;;6.57;2.35;;;;;;;;;;5105564;28;20201;-77
2023/03/23 14:44:40;;;;;;;10.02;2.33;;;;;;;;;;5110574;28;20197;-76
2023/03/23 14:47:10;;;;;;;9.90;2.80;;;;;;;;;;5109063;28;20267;-77
2023/03/23 14:49:39;;;;;;;9.60;2.93;;;;;;;;;;5109788;28;20563;-77